createdAt,value
2018-05-18T00:01:59.769Z,97764.42
2018-05-18T00:04:30.760Z,97758.21
2018-05-18T00:07:01.988Z,97755.69
2018-05-18T00:09:32.963Z,97757.27
2018-05-18T00:12:03.966Z,97761.20
2018-05-18T00:14:34.959Z,97760.00
2018-05-18T00:17:06.015Z,97764.38
2018-05-18T00:19:36.950Z,97760.81
2018-05-18T00:22:07.975Z,97764.22
2018-05-18T00:24:41.440Z,97764.08
2018-05-18T00:27:12.483Z,97765.24
2018-05-18T00:29:43.455Z,97759.56
2018-05-18T00:32:14.511Z,97766.97
2018-05-18T00:34:45.525Z,97762.63
2018-05-18T00:37:16.483Z,97759.58
2018-05-18T00:39:47.502Z,97752.85
2018-05-18T00:42:18.471Z,97756.17
2018-05-18T00:44:49.571Z,97752.75
2018-05-18T00:47:20.512Z,97755.27
2018-05-18T00:49:51.523Z,97758.86
2018-05-18T00:52:22.508Z,97761.00
2018-05-18T00:54:53.553Z,97756.52
2018-05-18T00:57:24.568Z,97753.47
2018-05-18T00:59:55.585Z,97749.88
2018-05-18T01:02:26.571Z,97750.66
2018-05-18T01:04:57.594Z,97750.75
2018-05-18T01:07:28.592Z,97753.89
2018-05-18T01:09:59.616Z,97753.63
2018-05-18T01:12:30.652Z,97756.38
2018-05-18T01:15:01.636Z,97755.79
2018-05-18T01:17:32.605Z,97757.36
2018-05-18T01:20:03.586Z,97754.97
2018-05-18T01:22:34.576Z,97747.84
2018-05-18T01:25:05.605Z,97752.42
2018-05-18T01:27:36.604Z,97753.98
2018-05-18T01:30:07.656Z,97758.69
2018-05-18T01:32:38.632Z,97759.45
2018-05-18T01:35:09.630Z,97760.07
2018-05-18T01:37:40.644Z,97759.00
2018-05-18T01:40:11.679Z,97756.23
2018-05-18T01:42:42.719Z,97746.98
2018-05-18T01:45:13.712Z,97749.23
2018-05-18T01:47:44.695Z,97753.16
2018-05-18T01:50:15.747Z,97753.56
2018-05-18T01:52:46.718Z,97756.20
2018-05-18T01:55:17.764Z,97757.77
2018-05-18T01:57:48.714Z,97757.49
2018-05-18T02:00:19.761Z,97760.01
2018-05-18T02:02:50.791Z,97760.50
2018-05-18T02:05:21.848Z,97755.98
2018-05-18T02:07:52.854Z,97764.05
2018-05-18T02:10:23.875Z,97769.06
2018-05-18T02:12:54.826Z,97771.88
2018-05-18T02:15:25.817Z,97771.32
2018-05-18T02:17:56.847Z,97773.28
2018-05-18T02:20:27.889Z,97773.80
2018-05-18T02:22:58.886Z,97768.92
2018-05-18T02:25:29.847Z,97769.72
2018-05-18T02:28:00.844Z,97777.24
2018-05-18T02:30:31.780Z,97779.05
2018-05-18T02:33:02.794Z,97770.61
2018-05-18T02:35:40.905Z,97777.17
2018-05-18T02:38:11.960Z,97776.85
2018-05-18T02:40:42.986Z,97778.29
2018-05-18T02:43:14.008Z,97776.57
2018-05-18T02:45:45.029Z,97776.84
2018-05-18T02:48:16.048Z,97776.45
2018-05-18T02:50:47.044Z,97771.09
2018-05-18T02:53:18.022Z,97767.25
2018-05-18T02:55:48.972Z,97777.77
2018-05-18T02:58:19.974Z,97774.53
2018-05-18T03:00:50.987Z,97778.88
2018-05-18T03:03:22.014Z,97774.64
2018-05-18T03:05:53.033Z,97777.56
2018-05-18T03:08:24.124Z,97777.95
2018-05-18T03:10:55.099Z,97781.12
2018-05-18T03:13:26.091Z,97775.59
2018-05-18T03:15:57.098Z,97781.64
2018-05-18T03:18:28.121Z,97783.84
2018-05-18T03:20:59.122Z,97787.91
2018-05-18T03:23:30.108Z,97790.16
2018-05-18T03:26:01.150Z,97788.88
2018-05-18T03:28:32.128Z,97791.67
2018-05-18T03:31:03.125Z,97786.67
2018-05-18T03:33:34.114Z,97787.99
2018-05-18T03:36:05.091Z,97789.71
2018-05-18T03:38:36.118Z,97797.63
2018-05-18T03:41:07.150Z,97800.67
2018-05-18T03:43:38.173Z,97800.67
2018-05-18T03:46:09.133Z,97799.36
2018-05-18T03:48:40.100Z,97804.44
2018-05-18T03:51:11.198Z,97810.40
2018-05-18T03:53:42.165Z,97811.24
2018-05-18T03:56:13.365Z,97813.93
2018-05-18T03:58:44.372Z,97817.57
2018-05-18T04:01:27.609Z,97818.33
2018-05-18T04:04:10.878Z,97827.80
2018-05-18T04:06:53.998Z,97828.67
2018-05-18T04:09:25.014Z,97827.95
2018-05-18T04:11:56.064Z,97826.01
2018-05-18T04:14:27.120Z,97832.38
2018-05-18T04:16:58.114Z,97833.16
2018-05-18T04:19:29.107Z,97837.88
2018-05-18T04:22:00.120Z,97844.72
2018-05-18T04:24:31.140Z,97840.81
2018-05-18T04:27:02.122Z,97830.84
2018-05-18T04:29:33.083Z,97831.78
2018-05-18T04:32:04.098Z,97828.00
2018-05-18T04:34:35.052Z,97830.66
2018-05-18T04:37:06.078Z,97832.78
2018-05-18T04:39:37.063Z,97837.88
2018-05-18T04:42:08.084Z,97827.45
2018-05-18T04:44:39.161Z,97827.33
2018-05-18T04:47:10.145Z,97823.23
2018-05-18T04:49:41.091Z,97820.88
2018-05-18T04:52:12.110Z,97818.23
2018-05-18T04:54:43.067Z,97820.77
2018-05-18T04:57:14.104Z,97823.55
2018-05-18T04:59:45.071Z,97818.23
2018-05-18T05:02:16.058Z,97816.62
2018-05-18T05:04:47.055Z,97822.39
2018-05-18T05:07:18.082Z,97826.95
2018-05-18T05:09:49.028Z,97830.05
2018-05-18T05:12:20.072Z,97824.72
2018-05-18T05:14:51.068Z,97822.23
2018-05-18T05:17:22.047Z,97813.86
2018-05-18T05:19:53.023Z,97817.46
2018-05-18T05:22:24.052Z,97819.03
2018-05-18T05:24:55.083Z,97824.21
2018-05-18T05:27:26.070Z,97818.20
2018-05-18T05:29:57.037Z,97816.86
2018-05-18T05:32:28.038Z,97820.71
2018-05-18T05:34:59.011Z,97829.37
2018-05-18T05:37:30.050Z,97832.00
2018-05-18T05:40:01.076Z,97831.23
2018-05-18T05:42:32.062Z,97838.36
2018-05-18T05:45:03.104Z,97839.98
2018-05-18T05:47:34.069Z,97834.53
2018-05-18T05:50:05.105Z,97836.13
2018-05-18T05:52:36.106Z,97837.64
2018-05-18T05:55:07.084Z,97840.95
2018-05-18T05:57:38.072Z,97832.16
2018-05-18T06:00:09.131Z,97825.86
2018-05-18T06:02:40.144Z,97823.58
2018-05-18T06:05:11.130Z,97822.74
2018-05-18T06:07:42.128Z,97826.83
2018-05-18T06:10:13.074Z,97825.02
2018-05-18T06:12:44.115Z,97816.97
2018-05-18T06:15:15.072Z,97804.88
2018-05-18T06:17:46.044Z,97803.95
2018-05-18T06:20:17.087Z,97795.07
2018-05-18T06:22:48.060Z,97791.75
2018-05-18T06:25:19.073Z,97796.75
2018-05-18T06:27:50.036Z,97794.09
2018-05-18T06:30:28.110Z,97788.04
2018-05-18T06:32:59.080Z,97787.31
2018-05-18T06:35:30.129Z,97785.05
2018-05-18T06:38:01.147Z,97781.11
2018-05-18T06:40:32.187Z,97781.33
2018-05-18T06:43:03.171Z,97777.75
2018-05-18T06:45:34.186Z,97779.44
2018-05-18T06:48:05.156Z,97785.47
2018-05-18T06:50:36.210Z,97775.55
2018-05-18T06:53:07.199Z,97778.33
2018-05-18T06:55:38.211Z,97778.71
2018-05-18T06:58:09.233Z,97780.61
2018-05-18T07:00:40.280Z,97781.41
2018-05-18T07:03:11.280Z,97772.49
2018-05-18T07:05:42.308Z,97777.36
2018-05-18T07:08:13.288Z,97778.73
2018-05-18T07:10:44.316Z,97784.29
2018-05-18T07:13:15.248Z,97780.44
2018-05-18T07:15:46.248Z,97774.39
2018-05-18T07:18:17.231Z,97770.44
2018-05-18T07:20:48.247Z,97766.36
2018-05-18T07:23:19.262Z,97772.41
2018-05-18T07:25:50.286Z,97770.36
2018-05-18T07:28:21.335Z,97772.70
2018-05-18T07:30:52.400Z,97768.95
2018-05-18T07:33:23.485Z,97766.47
2018-05-18T07:35:54.485Z,97764.37
2018-05-18T07:38:25.459Z,97766.53
2018-05-18T07:40:56.560Z,97758.65
2018-05-18T07:43:27.574Z,97753.73
2018-05-18T07:45:58.555Z,97744.31
2018-05-18T07:48:29.636Z,97745.06
2018-05-18T07:51:00.588Z,97738.73
2018-05-18T07:53:31.701Z,97741.12
2018-05-18T07:56:02.663Z,97733.49
2018-05-18T07:58:33.686Z,97731.99
2018-05-18T08:01:04.681Z,97737.14
2018-05-18T08:03:35.700Z,97732.27
2018-05-18T08:06:06.695Z,97732.38
2018-05-18T08:08:37.737Z,97735.55
2018-05-18T08:11:08.770Z,97726.93
2018-05-18T08:13:39.813Z,97724.37
2018-05-18T08:16:10.836Z,97730.95
2018-05-18T08:18:41.876Z,97725.37
2018-05-18T08:21:12.912Z,97725.88
2018-05-18T08:23:43.906Z,97722.20
2018-05-18T08:26:15.019Z,97721.24
2018-05-18T08:28:58.374Z,97728.77
2018-05-18T08:31:29.379Z,97726.79
2018-05-18T08:34:00.456Z,97720.45
2018-05-18T08:36:31.444Z,97721.33
2018-05-18T08:39:02.555Z,97720.69
2018-05-18T08:41:33.574Z,97718.92
2018-05-18T08:44:04.762Z,97718.00
2018-05-18T08:46:35.785Z,97714.20
2018-05-18T08:49:06.804Z,97717.25
2018-05-18T08:51:37.842Z,97718.53
2018-05-18T08:54:08.991Z,97715.83
2018-05-18T08:56:40.014Z,97717.91
2018-05-18T08:59:11.042Z,97717.42
2018-05-18T09:01:42.182Z,97724.49
2018-05-18T09:04:13.178Z,97715.64
2018-05-18T09:06:44.284Z,97712.80
2018-05-18T09:09:15.290Z,97714.23
2018-05-18T09:11:46.262Z,97710.29
2018-05-18T09:14:17.279Z,97712.02
2018-05-18T09:16:48.330Z,97707.36
2018-05-18T09:19:19.330Z,97711.16
2018-05-18T09:21:50.331Z,97713.08
2018-05-18T09:24:21.387Z,97718.87
2018-05-18T09:26:52.439Z,97715.09
2018-05-18T09:29:23.509Z,97716.03
2018-05-18T09:31:54.485Z,97711.06
2018-05-18T09:34:25.477Z,97715.03
2018-05-18T09:36:56.464Z,97718.73
2018-05-18T09:39:27.519Z,97709.81
2018-05-18T09:41:58.529Z,97717.02
2018-05-18T09:44:29.557Z,97714.75
2018-05-18T09:47:00.539Z,97721.82
2018-05-18T09:49:31.561Z,97728.32
2018-05-18T09:52:02.581Z,97728.06
2018-05-18T09:54:33.817Z,97724.05
2018-05-18T09:57:04.861Z,97731.00
2018-05-18T09:59:35.850Z,97717.11
2018-05-18T10:02:06.868Z,97715.75
2018-05-18T10:04:37.898Z,97717.02
2018-05-18T10:07:08.936Z,97711.96
2018-05-18T10:09:39.921Z,97710.53
2018-05-18T10:12:10.953Z,97720.95
2018-05-18T10:14:41.992Z,97721.53
2018-05-18T10:17:12.947Z,97718.59
2018-05-18T10:19:43.974Z,97705.13
2018-05-18T10:22:15.002Z,97705.50
2018-05-18T10:24:46.016Z,97700.20
2018-05-18T10:27:17.024Z,97700.09
2018-05-18T10:29:48.050Z,97699.87
2018-05-18T10:32:19.151Z,97700.41
2018-05-18T10:34:50.172Z,97698.81
2018-05-18T10:37:21.220Z,97695.23
2018-05-18T10:39:52.229Z,97701.58
2018-05-18T10:42:23.261Z,97704.67
2018-05-18T10:44:54.244Z,97695.30
2018-05-18T10:47:25.272Z,97690.80
2018-05-18T10:49:56.297Z,97695.70
2018-05-18T10:52:27.298Z,97691.09
2018-05-18T10:54:58.320Z,97693.52
2018-05-18T10:57:29.358Z,97686.84
2018-05-18T11:00:00.390Z,97693.21
2018-05-18T11:02:31.455Z,97696.63
2018-05-18T11:05:02.470Z,97699.20
2018-05-18T11:07:33.488Z,97699.85
2018-05-18T11:10:04.471Z,97703.62
2018-05-18T11:12:35.490Z,97710.00
2018-05-18T11:15:06.463Z,97710.30
2018-05-18T11:17:37.438Z,97704.50
2018-05-18T11:20:08.490Z,97700.44
2018-05-18T11:22:39.402Z,97699.37
2018-05-18T11:25:10.373Z,97691.16
2018-05-18T11:27:41.388Z,97698.27
2018-05-18T11:30:12.397Z,97698.70
2018-05-18T11:32:43.451Z,97688.66
2018-05-18T11:35:14.392Z,97690.33
2018-05-18T11:37:45.403Z,97696.51
2018-05-18T11:40:16.401Z,97691.66
2018-05-18T11:42:47.517Z,97688.22
2018-05-18T11:45:18.544Z,97693.08
2018-05-18T11:47:49.614Z,97693.75
2018-05-18T11:50:20.638Z,97700.74
2018-05-18T11:52:51.673Z,97684.58
2018-05-18T11:55:22.688Z,97680.44
2018-05-18T11:57:53.680Z,97678.90
2018-05-18T12:00:24.712Z,97676.06
2018-05-18T12:02:55.739Z,97687.83
2018-05-18T12:05:26.731Z,97682.06
2018-05-18T12:07:57.746Z,97680.92
2018-05-18T12:10:28.758Z,97683.07
2018-05-18T12:13:06.679Z,97671.72
2018-05-18T12:15:37.742Z,97671.17
2018-05-18T12:18:08.740Z,97673.19
2018-05-18T12:20:39.756Z,97678.72
2018-05-18T12:23:10.749Z,97677.25
2018-05-18T12:25:41.741Z,97672.64
2018-05-18T12:28:12.716Z,97667.98
2018-05-18T12:30:43.748Z,97664.11
2018-05-18T12:33:14.789Z,97664.39
2018-05-18T12:35:45.801Z,97666.86
2018-05-18T12:38:16.942Z,97665.22
2018-05-18T12:40:47.821Z,97660.49
2018-05-18T12:43:18.830Z,97657.84
2018-05-18T12:45:49.867Z,97661.32
2018-05-18T12:48:20.863Z,97650.66
2018-05-18T12:50:51.848Z,97649.91
2018-05-18T12:53:22.882Z,97652.44
2018-05-18T12:55:53.864Z,97648.88
2018-05-18T12:58:24.921Z,97641.32
2018-05-18T13:00:55.910Z,97639.58
2018-05-18T13:03:26.948Z,97636.83
2018-05-18T13:05:57.985Z,97637.00
2018-05-18T13:08:29.041Z,97629.97
2018-05-18T13:11:00.064Z,97634.72
2018-05-18T13:13:31.030Z,97633.33
2018-05-18T13:16:02.139Z,97632.90
2018-05-18T13:18:33.140Z,97633.06
2018-05-18T13:21:04.168Z,97624.72
2018-05-18T13:23:35.218Z,97627.70
2018-05-18T13:26:06.195Z,97625.56
2018-05-18T13:28:37.240Z,97622.28
2018-05-18T13:31:08.267Z,97619.31
2018-05-18T13:33:39.254Z,97619.26
2018-05-18T13:36:10.248Z,97610.76
2018-05-18T13:38:41.296Z,97614.10
2018-05-18T13:41:12.296Z,97614.88
2018-05-18T13:43:43.373Z,97604.38
2018-05-18T13:46:14.384Z,97607.27
2018-05-18T13:48:45.352Z,97608.34
2018-05-18T13:51:16.354Z,97603.52
2018-05-18T13:53:47.381Z,97594.56
2018-05-18T13:56:18.403Z,97602.40
2018-05-18T13:58:49.421Z,97594.75
2018-05-18T14:01:20.468Z,97592.80
2018-05-18T14:03:51.442Z,97587.05
2018-05-18T14:06:22.489Z,97586.59
2018-05-18T14:08:53.500Z,97587.48
2018-05-18T14:11:24.493Z,97583.55
2018-05-18T14:13:55.536Z,97583.77
2018-05-18T14:16:26.537Z,97579.86
2018-05-18T14:18:57.784Z,97579.38
2018-05-18T14:21:28.782Z,97585.02
2018-05-18T14:23:59.819Z,97577.69
2018-05-18T14:26:30.952Z,97580.34
2018-05-18T14:29:01.857Z,97581.73
2018-05-18T14:31:32.903Z,97580.13
2018-05-18T14:34:04.004Z,97581.44
2018-05-18T14:36:35.012Z,97581.03
2018-05-18T14:39:06.025Z,97578.73
2018-05-18T14:41:37.054Z,97580.13
2018-05-18T14:44:08.120Z,97581.64
2018-05-18T14:46:39.142Z,97574.30
2018-05-18T14:49:10.144Z,97569.66
2018-05-18T14:51:41.168Z,97563.54
2018-05-18T14:54:12.185Z,97564.88
2018-05-18T14:56:43.241Z,97569.52
2018-05-18T14:59:14.248Z,97572.46
2018-05-18T15:01:45.255Z,97569.00
2018-05-18T15:04:16.277Z,97568.61
2018-05-18T15:06:47.272Z,97570.07
2018-05-18T15:09:18.258Z,97567.87
2018-05-18T15:11:56.328Z,97573.19
2018-05-18T15:14:27.344Z,97570.36
2018-05-18T15:16:58.358Z,97566.84
2018-05-18T15:19:29.386Z,97572.58
2018-05-18T15:22:00.345Z,97572.36
2018-05-18T15:24:31.344Z,97572.23
2018-05-18T15:27:02.386Z,97569.05
2018-05-18T15:29:33.428Z,97565.92
2018-05-18T15:32:04.510Z,97562.72
2018-05-18T15:34:35.550Z,97563.63
2018-05-18T15:37:06.558Z,97565.78
2018-05-18T15:39:37.587Z,97573.31
2018-05-18T15:42:08.595Z,97579.76
2018-05-18T15:44:39.659Z,97571.07
2018-05-18T15:47:10.659Z,97570.91
2018-05-18T15:49:41.689Z,97562.78
2018-05-18T15:52:12.771Z,97568.38
2018-05-18T15:54:43.741Z,97559.33
2018-05-18T15:57:14.794Z,97560.06
2018-05-18T15:59:45.851Z,97560.30
2018-05-18T16:02:16.842Z,97558.16
2018-05-18T16:04:47.842Z,97553.02
2018-05-18T16:07:18.920Z,97558.81
2018-05-18T16:09:49.920Z,97549.93
2018-05-18T16:12:20.936Z,97550.00
2018-05-18T16:14:52.072Z,97550.66
2018-05-18T16:17:23.108Z,97553.69
2018-05-18T16:19:54.089Z,97547.66
2018-05-18T16:22:25.124Z,97551.88
2018-05-18T16:24:56.095Z,97548.45
2018-05-18T16:27:27.129Z,97549.63
2018-05-18T16:29:58.176Z,97547.73
2018-05-18T16:32:29.215Z,97549.11
2018-05-18T16:35:00.222Z,97549.12
2018-05-18T16:37:31.268Z,97551.12
2018-05-18T16:40:02.338Z,97552.86
2018-05-18T16:42:33.359Z,97556.42
2018-05-18T16:45:04.393Z,97554.53
2018-05-18T16:47:35.416Z,97556.70
2018-05-18T16:52:42.149Z,97554.28
2018-05-18T16:55:13.130Z,97561.41
2018-05-18T16:57:44.251Z,97561.02
2018-05-18T17:00:15.233Z,97558.73
2018-05-18T17:02:46.296Z,97559.34
2018-05-18T17:05:17.358Z,97560.17
2018-05-18T17:07:48.389Z,97567.50
2018-05-18T17:10:19.416Z,97567.81
2018-05-18T17:12:50.433Z,97571.09
2018-05-18T17:15:21.422Z,97570.16
2018-05-18T17:17:52.456Z,97576.08
2018-05-18T17:20:23.438Z,97573.88
2018-05-18T17:22:54.471Z,97579.45
2018-05-18T17:25:25.511Z,97571.77
2018-05-18T17:27:56.539Z,97576.33
2018-05-18T17:30:28.232Z,97581.55
2018-05-18T17:32:59.239Z,97578.19
2018-05-18T17:35:30.229Z,97577.32
2018-05-18T17:38:01.202Z,97581.73
2018-05-18T17:40:32.267Z,97583.55
2018-05-18T17:43:03.290Z,97582.43
2018-05-18T17:45:42.008Z,97584.19
2018-05-18T17:48:13.205Z,97580.69
2018-05-18T17:50:44.375Z,97580.24
2018-05-18T17:53:15.530Z,97590.14
2018-05-18T17:55:46.703Z,97587.02
2018-05-18T17:58:17.914Z,97588.38
2018-05-18T18:00:49.072Z,97597.05
2018-05-18T18:03:20.346Z,97596.89
2018-05-18T18:05:51.407Z,97593.42
2018-05-18T18:08:22.789Z,97594.14
2018-05-18T18:10:54.004Z,97597.59
2018-05-18T18:13:25.153Z,97597.43
2018-05-18T18:15:56.290Z,97600.03
2018-05-18T18:18:27.428Z,97599.80
2018-05-18T18:20:58.550Z,97611.12
2018-05-18T18:23:30.629Z,97604.09
2018-05-18T18:26:01.643Z,97609.43
2018-05-18T18:28:32.799Z,97611.53
2018-05-18T18:31:03.768Z,97610.73
2018-05-18T18:33:34.814Z,97614.93
2018-05-18T18:36:05.852Z,97612.25
2018-05-18T18:38:36.910Z,97615.81
2018-05-18T18:41:07.920Z,97610.56
2018-05-18T18:43:38.919Z,97623.48
2018-05-18T18:46:09.945Z,97622.04
2018-05-18T18:48:40.923Z,97625.28
2018-05-18T18:51:11.942Z,97631.55
2018-05-18T18:53:42.989Z,97633.52
2018-05-18T18:56:14.053Z,97642.74
2018-05-18T18:58:45.080Z,97644.47
2018-05-18T19:01:16.034Z,97653.12
2018-05-18T19:03:47.035Z,97652.20
2018-05-18T19:06:18.118Z,97654.09
2018-05-18T19:08:49.082Z,97662.02
2018-05-18T19:11:20.117Z,97665.01
2018-05-18T19:13:51.095Z,97664.91
2018-05-18T19:16:22.130Z,97679.88
2018-05-18T19:18:53.154Z,97673.34
2018-05-18T19:21:24.178Z,97681.85
2018-05-18T19:23:55.159Z,97688.34
2018-05-18T19:26:26.162Z,97687.40
2018-05-18T19:28:57.186Z,97693.52
2018-05-18T19:31:28.217Z,97688.56
2018-05-18T19:33:59.212Z,97691.27
2018-05-18T19:36:30.301Z,97694.89
2018-05-18T19:39:01.293Z,97695.48
2018-05-18T19:41:32.328Z,97696.91
2018-05-18T19:44:03.377Z,97706.20
2018-05-18T19:46:34.364Z,97701.23
2018-05-18T19:49:05.403Z,97702.30
2018-05-18T19:51:36.430Z,97708.36
2018-05-18T19:54:07.505Z,97711.48
2018-05-18T19:56:38.512Z,97705.30
2018-05-18T19:59:09.575Z,97710.06
2018-05-18T20:01:40.566Z,97712.13
2018-05-18T20:04:11.881Z,97711.25
2018-05-18T20:06:42.917Z,97716.14
2018-05-18T20:09:13.886Z,97717.95
2018-05-18T20:11:44.901Z,97721.48
2018-05-18T20:14:16.065Z,97719.69
2018-05-18T20:16:47.089Z,97729.09
2018-05-18T20:19:18.063Z,97731.79
2018-05-18T20:21:49.048Z,97734.27
2018-05-18T20:24:20.064Z,97733.59
2018-05-18T20:26:51.069Z,97738.55
2018-05-18T20:29:22.104Z,97740.73
2018-05-18T20:31:53.131Z,97744.23
2018-05-18T20:34:24.123Z,97747.23
2018-05-18T20:36:55.197Z,97749.96
2018-05-18T20:39:26.149Z,97752.03
2018-05-18T20:41:57.138Z,97750.36
2018-05-18T20:44:28.163Z,97752.56
2018-05-18T20:46:59.186Z,97749.19
2018-05-18T20:49:30.155Z,97754.28
2018-05-18T20:52:01.183Z,97757.28
2018-05-18T20:54:32.201Z,97762.88
2018-05-18T20:57:03.232Z,97761.17
2018-05-18T20:59:34.230Z,97760.89
2018-05-18T21:02:05.252Z,97762.69
2018-05-18T21:04:36.280Z,97768.31
2018-05-18T21:07:07.293Z,97770.75
2018-05-18T21:09:38.303Z,97775.45
2018-05-18T21:12:09.364Z,97770.05
2018-05-18T21:14:40.428Z,97776.44
2018-05-18T21:17:11.552Z,97772.09
2018-05-18T21:19:42.543Z,97768.65
2018-05-18T21:22:13.578Z,97774.41
2018-05-18T21:24:44.574Z,97768.20
2018-05-18T21:27:15.612Z,97763.33
2018-05-18T21:29:46.726Z,97772.50
2018-05-18T21:32:17.760Z,97771.20
2018-05-18T21:34:48.732Z,97775.59
2018-05-18T21:37:19.739Z,97774.03
2018-05-18T21:39:50.747Z,97773.14
2018-05-18T21:42:21.774Z,97782.30
2018-05-18T21:44:52.759Z,97787.25
2018-05-18T21:47:23.732Z,97792.83
2018-05-18T21:49:54.775Z,97787.11
2018-05-18T21:52:25.740Z,97783.93
2018-05-18T21:54:56.813Z,97787.81
2018-05-18T21:57:27.789Z,97787.28
2018-05-18T21:59:58.870Z,97787.84
2018-05-18T22:02:29.812Z,97787.57
2018-05-18T22:05:00.811Z,97785.61
2018-05-18T22:07:31.776Z,97780.99
2018-05-18T22:10:02.851Z,97784.70
2018-05-18T22:12:33.847Z,97783.01
2018-05-18T22:15:04.940Z,97788.47
2018-05-18T22:17:35.915Z,97787.94
2018-05-18T22:20:06.936Z,97787.27
2018-05-18T22:22:37.944Z,97791.41
2018-05-18T22:25:15.866Z,97795.52
2018-05-18T22:27:46.869Z,97794.20
2018-05-18T22:30:17.891Z,97791.55
2018-05-18T22:32:48.902Z,97794.47
2018-05-18T22:35:19.890Z,97792.23
2018-05-18T22:37:50.920Z,97788.78
2018-05-18T22:40:21.950Z,97782.54
2018-05-18T22:42:52.973Z,97782.16
2018-05-18T22:45:24.027Z,97782.71
2018-05-18T22:47:55.020Z,97786.28
2018-05-18T22:50:26.055Z,97783.50
2018-05-18T22:52:57.088Z,97786.17
2018-05-18T22:55:28.180Z,97788.69
2018-05-18T22:57:59.187Z,97785.11
2018-05-18T23:00:30.220Z,97776.48
2018-05-18T23:03:01.254Z,97778.50
2018-05-18T23:05:32.248Z,97776.77
2018-05-18T23:08:03.279Z,97776.52
2018-05-18T23:10:34.308Z,97784.86
2018-05-18T23:13:05.328Z,97782.20
2018-05-18T23:15:36.369Z,97777.98
2018-05-18T23:18:07.396Z,97781.30
2018-05-18T23:20:38.414Z,97781.69
2018-05-18T23:23:09.457Z,97777.02
2018-05-18T23:25:40.489Z,97780.59
2018-05-18T23:28:11.493Z,97777.54
2018-05-18T23:30:42.554Z,97778.20
2018-05-18T23:33:13.552Z,97778.48
2018-05-18T23:35:44.555Z,97767.47
2018-05-18T23:38:15.577Z,97767.88
2018-05-18T23:40:46.618Z,97767.08
2018-05-18T23:43:17.610Z,97760.73
2018-05-18T23:45:48.598Z,97757.56
2018-05-18T23:48:19.592Z,97759.67
2018-05-18T23:50:50.599Z,97760.45
2018-05-18T23:53:21.629Z,97767.75
2018-05-18T23:55:52.602Z,97761.77
2018-05-18T23:58:23.597Z,97765.34
